createdAt,value
2023-01-09T00:01:28.800Z,99575.72
2023-01-09T00:03:56.421Z,99559.38
2023-01-09T00:06:23.867Z,99561.31
2023-01-09T00:08:50.943Z,99563.06
2023-01-09T00:11:20.880Z,99578.91
2023-01-09T00:13:48.078Z,99581.34
2023-01-09T00:16:16.744Z,99564.56
2023-01-09T00:18:44.034Z,99577.41
2023-01-09T00:21:14.773Z,99568.56
2023-01-09T00:23:44.118Z,99566.44
2023-01-09T00:26:18.670Z,99544.78
2023-01-09T00:28:47.821Z,99566.50
2023-01-09T00:31:16.038Z,99566.19
2023-01-09T00:33:45.870Z,99569.47
2023-01-09T00:36:13.503Z,99564.44
2023-01-09T00:38:41.229Z,99549.63
2023-01-09T00:41:15.373Z,99547.34
2023-01-09T00:43:48.810Z,99547.09
2023-01-09T00:46:18.891Z,99538.59
2023-01-09T00:48:48.717Z,99543.47
2023-01-09T00:51:19.115Z,99540.53
2023-01-09T00:53:49.064Z,99537.22
2023-01-09T00:56:19.584Z,99540.34
2023-01-09T00:58:47.281Z,99532.25
2023-01-09T01:01:14.876Z,99534.84
2023-01-09T01:03:46.233Z,99540.06
2023-01-09T01:06:32.096Z,99527.72
2023-01-09T01:08:59.209Z,99514.69
2023-01-09T01:11:26.948Z,99519.69
2023-01-09T01:13:54.282Z,99514.69
2023-01-09T01:16:21.795Z,99508.31
2023-01-09T01:18:48.965Z,99515.69
2023-01-09T01:21:17.231Z,99498.09
2023-01-09T01:23:44.926Z,99505.91
2023-01-09T01:26:16.961Z,99495.19
2023-01-09T01:28:44.527Z,99498.06
2023-01-09T01:31:19.420Z,99492.28
2023-01-09T01:33:46.415Z,99491.28
2023-01-09T01:36:16.314Z,99488.59
2023-01-09T01:38:44.103Z,99493.56
2023-01-09T01:41:11.441Z,99490.88
2023-01-09T01:44:27.814Z,99485.59
2023-01-09T01:46:56.518Z,99478.97
2023-01-09T01:49:23.747Z,99489.53
2023-01-09T01:51:54.060Z,99473.91
2023-01-09T01:54:26.379Z,99478.16
2023-01-09T01:56:57.202Z,99469.63
2023-01-09T01:59:33.752Z,99467.78
2023-01-09T02:02:03.406Z,99449.28
2023-01-09T02:04:34.695Z,99453.59
2023-01-09T02:07:07.594Z,99428.91
2023-01-09T02:09:35.347Z,99440.97
2023-01-09T02:12:03.218Z,99450.38
2023-01-09T02:14:32.584Z,99429.66
2023-01-09T02:17:20.266Z,99429.97
2023-01-09T02:20:32.012Z,99412.22
2023-01-09T02:23:29.735Z,99413.44
2023-01-09T02:26:14.651Z,99397.78
2023-01-09T02:28:45.216Z,99396.66
2023-01-09T02:31:37.829Z,99389.84
2023-01-09T02:34:36.627Z,99381.28
2023-01-09T02:37:21.948Z,99381.22
2023-01-09T02:40:07.089Z,99368.66
2023-01-09T02:42:36.053Z,99362.91
2023-01-09T02:45:03.824Z,99357.91
2023-01-09T02:47:30.928Z,99373.34
2023-01-09T02:50:02.014Z,99368.88
2023-01-09T02:52:48.823Z,99374.66
2023-01-09T02:55:40.281Z,99357.75
2023-01-09T02:58:28.938Z,99368.84
2023-01-09T03:01:22.704Z,99331.81
2023-01-09T03:03:50.148Z,99343.25
2023-01-09T03:06:33.243Z,99327.03
2023-01-09T03:09:07.227Z,99337.72
2023-01-09T03:11:42.596Z,99317.53
2023-01-09T03:14:14.655Z,99344.59
2023-01-09T03:16:45.964Z,99308.69
2023-01-09T03:19:18.244Z,99325.56
2023-01-09T03:21:48.153Z,99319.63
2023-01-09T03:24:15.633Z,99301.59
2023-01-09T03:26:43.541Z,99302.41
2023-01-09T03:29:10.791Z,99299.47
2023-01-09T03:31:38.358Z,99291.84
2023-01-09T03:34:05.553Z,99289.72
2023-01-09T03:36:33.135Z,99285.63
2023-01-09T03:39:01.558Z,99284.13
2023-01-09T03:41:29.152Z,99278.31
2023-01-09T03:43:56.392Z,99275.47
2023-01-09T03:46:23.795Z,99272.75
2023-01-09T03:48:50.911Z,99267.03
2023-01-09T03:51:18.365Z,99272.38
2023-01-09T03:53:45.485Z,99260.81
2023-01-09T03:56:12.871Z,99253.41
2023-01-09T03:58:39.978Z,99262.06
2023-01-09T04:01:13.036Z,99262.88
2023-01-09T04:03:40.700Z,99256.72
2023-01-09T04:06:08.177Z,99240.78
2023-01-09T04:08:35.240Z,99255.59
2023-01-09T04:11:02.718Z,99246.00
2023-01-09T04:13:29.892Z,99252.88
2023-01-09T04:15:57.289Z,99239.72
2023-01-09T04:18:24.402Z,99254.22
2023-01-09T04:20:54.514Z,99249.09
2023-01-09T04:23:22.671Z,99247.69
2023-01-09T04:25:50.041Z,99240.84
2023-01-09T04:28:17.169Z,99244.53
2023-01-09T04:30:45.078Z,99253.53
2023-01-09T04:33:12.251Z,99240.59
2023-01-09T04:35:39.747Z,99242.22
2023-01-09T04:38:06.871Z,99248.19
2023-01-09T04:40:34.479Z,99230.81
2023-01-09T04:43:01.912Z,99244.38
2023-01-09T04:45:29.472Z,99242.03
2023-01-09T04:47:56.620Z,99249.00
2023-01-09T04:50:25.100Z,99255.84
2023-01-09T04:52:52.467Z,99272.75
2023-01-09T04:55:19.959Z,99253.03
2023-01-09T04:57:47.022Z,99253.72
2023-01-09T05:00:14.756Z,99257.91
2023-01-09T05:02:42.073Z,99241.84
2023-01-09T05:05:11.876Z,99245.13
2023-01-09T05:07:39.494Z,99246.13
2023-01-09T05:10:08.926Z,99262.22
2023-01-09T05:12:36.688Z,99255.66
2023-01-09T05:15:05.243Z,99263.50
2023-01-09T05:17:32.485Z,99240.03
2023-01-09T05:20:01.203Z,99265.56
2023-01-09T05:22:28.558Z,99263.63
2023-01-09T05:24:56.334Z,99257.31
2023-01-09T05:27:23.534Z,99269.16
2023-01-09T05:29:50.988Z,99264.97
2023-01-09T05:32:18.069Z,99248.34
2023-01-09T05:34:45.440Z,99265.16
2023-01-09T05:37:12.518Z,99272.00
2023-01-09T05:39:40.034Z,99269.84
2023-01-09T05:42:07.460Z,99256.63
2023-01-09T05:44:34.862Z,99254.88
2023-01-09T05:47:03.504Z,99267.34
2023-01-09T05:49:30.924Z,99258.63
2023-01-09T05:51:58.019Z,99256.03
2023-01-09T05:54:25.551Z,99245.53
2023-01-09T05:56:52.653Z,99258.63
2023-01-09T05:59:20.335Z,99250.41
2023-01-09T06:01:47.371Z,99253.03
2023-01-09T06:04:14.938Z,99250.00
2023-01-09T06:06:42.131Z,99225.94
2023-01-09T06:09:09.826Z,99233.16
2023-01-09T06:11:38.529Z,99230.03
2023-01-09T06:14:06.559Z,99225.53
2023-01-09T06:16:33.639Z,99231.06
2023-01-09T06:19:01.030Z,99221.91
2023-01-09T06:21:29.619Z,99214.34
2023-01-09T06:23:57.075Z,99221.13
2023-01-09T06:26:25.551Z,99217.69
2023-01-09T06:28:55.799Z,99224.69
2023-01-09T06:31:24.083Z,99216.63
2023-01-09T06:33:51.561Z,99215.00
2023-01-09T06:36:19.997Z,99215.34
2023-01-09T06:38:49.106Z,99206.28
2023-01-09T06:41:16.240Z,99213.84
2023-01-09T06:43:43.944Z,99199.47
2023-01-09T06:46:11.048Z,99200.31
2023-01-09T06:48:38.600Z,99205.13
2023-01-09T06:51:05.975Z,99202.34
2023-01-09T06:53:35.095Z,99206.50
2023-01-09T06:56:05.169Z,99198.09
2023-01-09T06:58:32.657Z,99187.50
2023-01-09T07:00:59.904Z,99200.75
2023-01-09T07:03:27.870Z,99204.63
2023-01-09T07:05:55.636Z,99193.06
2023-01-09T07:08:23.151Z,99182.53
2023-01-09T07:10:50.358Z,99199.53
2023-01-09T07:13:17.797Z,99190.72
2023-01-09T07:15:44.980Z,99195.97
2023-01-09T07:18:12.619Z,99179.84
2023-01-09T07:20:41.680Z,99188.94
2023-01-09T07:23:14.244Z,99181.13
2023-01-09T07:25:45.155Z,99173.72
2023-01-09T07:28:31.402Z,99159.28
2023-01-09T07:31:02.685Z,99163.19
2023-01-09T07:33:30.184Z,99177.34
2023-01-09T07:35:58.266Z,99160.75
2023-01-09T07:38:26.275Z,99150.28
2023-01-09T07:40:53.657Z,99161.44
2023-01-09T07:43:21.301Z,99146.59
2023-01-09T07:45:48.381Z,99144.78
2023-01-09T07:48:15.828Z,99140.34
2023-01-09T07:50:42.857Z,99138.28
2023-01-09T07:53:10.278Z,99133.56
2023-01-09T07:55:37.386Z,99151.56
2023-01-09T07:58:04.857Z,99128.31
2023-01-09T08:00:33.399Z,99148.81
2023-01-09T08:03:01.158Z,99138.09
2023-01-09T08:05:28.370Z,99120.19
2023-01-09T08:07:55.850Z,99122.56
2023-01-09T08:10:22.958Z,99130.50
2023-01-09T08:12:50.434Z,99122.06
2023-01-09T08:15:18.225Z,99085.94
2023-01-09T08:17:47.022Z,99129.34
2023-01-09T08:20:16.491Z,99111.09
2023-01-09T08:22:50.147Z,99113.69
2023-01-09T08:25:18.266Z,99125.53
2023-01-09T08:27:46.180Z,99124.50
2023-01-09T08:30:14.878Z,99117.13
2023-01-09T08:32:42.944Z,99115.41
2023-01-09T08:35:10.422Z,99117.22
2023-01-09T08:37:37.856Z,99124.88
2023-01-09T08:40:08.568Z,99134.19
2023-01-09T08:42:54.882Z,99119.13
2023-01-09T08:45:40.554Z,99130.69
2023-01-09T08:48:08.402Z,99111.97
2023-01-09T08:50:35.580Z,99109.22
2023-01-09T08:53:03.512Z,99114.13
2023-01-09T08:55:30.751Z,99129.81
2023-01-09T08:57:58.143Z,99109.75
2023-01-09T09:00:25.642Z,99107.31
2023-01-09T09:02:59.502Z,99111.00
2023-01-09T09:05:28.415Z,99108.78
2023-01-09T09:07:56.796Z,99116.09
2023-01-09T09:10:26.431Z,99120.03
2023-01-09T09:12:56.936Z,99118.63
2023-01-09T09:15:25.193Z,99118.47
2023-01-09T09:17:58.168Z,99107.53
2023-01-09T09:20:28.877Z,99120.34
2023-01-09T09:22:56.634Z,99118.91
2023-01-09T09:25:23.999Z,99096.59
2023-01-09T09:27:52.276Z,99091.25
2023-01-09T09:30:20.278Z,99104.09
2023-01-09T09:32:47.764Z,99109.66
2023-01-09T09:35:15.575Z,99091.84
2023-01-09T09:37:44.422Z,99094.72
2023-01-09T09:40:20.359Z,99088.31
2023-01-09T09:43:44.276Z,99092.44
2023-01-09T09:46:47.793Z,99092.84
2023-01-09T09:49:22.063Z,99092.25
2023-01-09T09:52:13.896Z,99087.28
2023-01-09T09:54:49.062Z,99070.91
2023-01-09T09:57:19.518Z,99090.19
2023-01-09T09:59:52.031Z,99078.59
2023-01-09T10:02:29.653Z,99069.94
2023-01-09T10:05:04.749Z,99069.13
2023-01-09T10:07:38.874Z,99058.38
2023-01-09T10:10:11.027Z,99058.56
2023-01-09T10:12:53.837Z,99064.78
2023-01-09T10:16:02.345Z,99064.59
2023-01-09T10:19:06.691Z,99068.47
2023-01-09T10:21:52.547Z,99066.63
2023-01-09T10:24:37.674Z,99060.22
2023-01-09T10:27:19.779Z,99050.28
2023-01-09T10:30:03.307Z,99050.69
2023-01-09T10:32:36.827Z,99034.97
2023-01-09T10:35:46.977Z,99034.94
2023-01-09T10:38:21.606Z,99017.56
2023-01-09T10:41:03.337Z,99020.25
2023-01-09T10:43:45.879Z,99018.34
2023-01-09T10:46:22.153Z,99014.03
2023-01-09T10:48:59.479Z,99016.50
2023-01-09T10:51:46.997Z,99022.59
2023-01-09T10:54:18.593Z,99015.09
2023-01-09T10:56:54.969Z,98996.50
2023-01-09T10:59:24.490Z,98978.72
2023-01-09T11:01:51.916Z,98980.19
2023-01-09T11:04:37.776Z,98958.28
2023-01-09T11:07:21.748Z,98960.13
2023-01-09T11:09:56.903Z,98964.69
2023-01-09T11:12:26.671Z,98955.19
2023-01-09T11:14:56.329Z,98938.63
2023-01-09T11:17:27.563Z,98955.47
2023-01-09T11:20:08.616Z,98948.00
2023-01-09T11:22:44.934Z,98933.31
2023-01-09T11:25:17.293Z,98927.94
2023-01-09T11:27:45.311Z,98925.66
2023-01-09T11:30:12.765Z,98923.38
2023-01-09T11:32:39.968Z,98914.25
2023-01-09T11:35:17.389Z,98913.88
2023-01-09T11:37:46.254Z,98903.09
2023-01-09T11:40:20.475Z,98892.13
2023-01-09T11:43:11.631Z,98891.91
2023-01-09T11:46:00.505Z,98888.19
2023-01-09T11:48:31.897Z,98884.63
2023-01-09T11:51:01.099Z,98869.13
2023-01-09T11:53:28.785Z,98887.75
2023-01-09T11:56:04.510Z,98876.13
2023-01-09T11:58:35.210Z,98879.25
2023-01-09T12:01:33.432Z,98872.41
2023-01-09T12:04:23.519Z,98877.19
2023-01-09T12:07:26.506Z,98875.31
2023-01-09T12:10:11.695Z,98856.69
2023-01-09T12:13:02.547Z,98848.66
2023-01-09T12:15:41.695Z,98846.38
2023-01-09T12:18:34.168Z,98854.25
2023-01-09T12:21:10.837Z,98847.63
2023-01-09T12:24:23.099Z,98826.06
2023-01-09T12:27:22.078Z,98822.34
2023-01-09T12:30:05.125Z,98822.16
2023-01-09T12:33:01.830Z,98812.63
2023-01-09T12:35:47.640Z,98811.38
2023-01-09T12:38:33.517Z,98815.75
2023-01-09T12:41:38.282Z,98822.56
2023-01-09T12:44:18.142Z,98819.66
2023-01-09T12:47:07.059Z,98805.81
2023-01-09T12:49:39.504Z,98786.75
2023-01-09T12:52:17.477Z,98774.75
2023-01-09T12:54:53.752Z,98773.94
2023-01-09T12:57:30.369Z,98777.06
2023-01-09T13:00:20.788Z,98778.91
2023-01-09T13:03:11.974Z,98781.81
2023-01-09T13:05:46.127Z,98778.31
2023-01-09T13:08:37.942Z,98762.78
2023-01-09T13:11:20.397Z,98768.38
2023-01-09T13:14:09.986Z,98751.19
2023-01-09T13:16:42.507Z,98758.00
2023-01-09T13:19:25.298Z,98749.31
2023-01-09T13:21:53.756Z,98762.56
2023-01-09T13:24:34.355Z,98755.50
2023-01-09T13:27:08.847Z,98761.06
2023-01-09T13:29:44.217Z,98744.50
2023-01-09T13:32:23.503Z,98752.97
2023-01-09T13:34:55.066Z,98756.06
2023-01-09T13:37:31.420Z,98757.88
2023-01-09T13:40:00.879Z,98749.97
2023-01-09T13:42:36.738Z,98763.22
2023-01-09T13:45:25.512Z,98758.00
2023-01-09T13:48:11.376Z,98761.28
2023-01-09T13:50:39.628Z,98723.63
2023-01-09T13:53:32.273Z,98768.28
2023-01-09T13:55:59.905Z,98754.25
2023-01-09T13:58:32.053Z,98742.22
2023-01-09T14:01:03.294Z,98742.19
2023-01-09T14:03:36.714Z,98749.25
2023-01-09T14:06:13.170Z,98738.50
2023-01-09T14:08:42.139Z,98736.03
2023-01-09T14:11:19.182Z,98732.34
2023-01-09T14:13:47.323Z,98732.81
2023-01-09T14:16:24.981Z,98744.22
2023-01-09T14:19:25.629Z,98730.69
2023-01-09T14:21:56.170Z,98726.38
2023-01-09T14:24:31.508Z,98718.13
2023-01-09T14:27:01.322Z,98714.00
2023-01-09T14:29:31.263Z,98704.28
2023-01-09T14:32:23.731Z,98709.81
2023-01-09T14:34:57.851Z,98699.66
2023-01-09T14:37:28.206Z,98707.72
2023-01-09T14:39:56.710Z,98704.00
2023-01-09T14:42:28.714Z,98699.38
2023-01-09T14:45:04.385Z,98702.44
2023-01-09T14:47:31.799Z,98699.53
2023-01-09T14:50:17.734Z,98709.63
2023-01-09T14:52:49.343Z,98699.09
2023-01-09T14:55:36.323Z,98710.22
2023-01-09T14:58:20.521Z,98699.66
2023-01-09T15:01:10.768Z,98693.81
2023-01-09T15:03:40.680Z,98690.09
2023-01-09T15:06:15.295Z,98683.66
2023-01-09T15:09:06.071Z,98680.81
2023-01-09T15:11:36.999Z,98674.41
2023-01-09T15:14:06.680Z,98650.88
2023-01-09T15:16:33.884Z,98656.66
2023-01-09T15:19:07.696Z,98674.00
2023-01-09T15:21:35.063Z,98663.50
2023-01-09T15:24:23.072Z,98671.38
2023-01-09T15:26:55.384Z,98667.00
2023-01-09T15:29:23.186Z,98670.50
2023-01-09T15:31:55.722Z,98662.00
2023-01-09T15:34:25.758Z,98658.31
2023-01-09T15:36:53.930Z,98653.16
2023-01-09T15:39:40.187Z,98665.38
2023-01-09T15:42:41.604Z,98627.84
2023-01-09T15:45:29.606Z,98629.66
2023-01-09T15:48:31.002Z,98639.00
2023-01-09T15:51:12.110Z,98640.84
2023-01-09T15:53:43.172Z,98637.16
2023-01-09T15:56:13.667Z,98627.22
2023-01-09T15:58:47.326Z,98629.47
2023-01-09T16:01:24.082Z,98638.16
2023-01-09T16:03:51.885Z,98622.47
2023-01-09T16:06:27.881Z,98626.13
2023-01-09T16:08:58.027Z,98621.22
2023-01-09T16:11:35.031Z,98624.75
2023-01-09T16:14:34.915Z,98624.50
2023-01-09T16:17:07.413Z,98620.31
2023-01-09T16:20:12.098Z,98616.19
2023-01-09T16:22:56.579Z,98609.38
2023-01-09T16:25:37.038Z,98609.16
2023-01-09T16:28:30.749Z,98591.41
2023-01-09T16:31:03.754Z,98601.34
2023-01-09T16:33:32.059Z,98592.66
2023-01-09T16:35:59.382Z,98597.44
2023-01-09T16:38:27.442Z,98589.97
2023-01-09T16:41:26.952Z,98588.97
2023-01-09T16:43:57.312Z,98593.72
2023-01-09T16:46:24.748Z,98588.56
2023-01-09T16:48:53.856Z,98579.00
2023-01-09T16:51:23.058Z,98587.44
2023-01-09T16:53:50.482Z,98580.03
2023-01-09T16:56:27.636Z,98608.44
2023-01-09T16:58:55.111Z,98595.28
2023-01-09T17:01:23.753Z,98582.72
2023-01-09T17:03:52.637Z,98583.53
2023-01-09T17:06:39.500Z,98584.72
2023-01-09T17:09:07.218Z,98590.75
2023-01-09T17:11:34.321Z,98589.28
2023-01-09T17:14:02.466Z,98588.66
2023-01-09T17:16:30.711Z,98573.78
2023-01-09T17:18:58.173Z,98575.16
2023-01-09T17:21:30.920Z,98579.91
2023-01-09T17:24:18.323Z,98581.69
2023-01-09T17:27:09.725Z,98584.53
2023-01-09T17:29:37.664Z,98573.53
2023-01-09T17:32:04.983Z,98563.47
2023-01-09T17:34:33.843Z,98572.31
2023-01-09T17:37:03.100Z,98561.97
2023-01-09T17:39:31.754Z,98564.66
2023-01-09T17:42:01.979Z,98559.84
2023-01-09T17:44:29.815Z,98570.78
2023-01-09T17:46:56.986Z,98585.19
2023-01-09T17:49:24.577Z,98579.63
2023-01-09T17:51:52.403Z,98585.84
2023-01-09T17:54:21.322Z,98581.50
2023-01-09T17:56:51.225Z,98550.88
2023-01-09T17:59:19.076Z,98577.03
2023-01-09T18:01:47.127Z,98566.72
2023-01-09T18:04:14.710Z,98560.97
2023-01-09T18:06:41.860Z,98557.41
2023-01-09T18:09:14.778Z,98553.31
2023-01-09T18:11:42.093Z,98533.34
2023-01-09T18:14:11.221Z,98524.69
2023-01-09T18:16:39.312Z,98513.50
2023-01-09T18:19:06.929Z,98521.81
2023-01-09T18:21:34.254Z,98515.03
2023-01-09T18:24:02.029Z,98510.41
2023-01-09T18:26:29.323Z,98507.13
2023-01-09T18:28:59.354Z,98494.88
2023-01-09T18:31:28.099Z,98497.47
2023-01-09T18:33:57.959Z,98494.53
2023-01-09T18:36:29.737Z,98494.28
2023-01-09T18:39:02.419Z,98472.94
2023-01-09T18:41:30.741Z,98492.34
2023-01-09T18:44:00.281Z,98469.78
2023-01-09T18:46:32.065Z,98456.78
2023-01-09T18:49:03.130Z,98466.28
2023-01-09T18:51:31.635Z,98472.41
2023-01-09T18:53:59.005Z,98471.19
2023-01-09T18:56:26.467Z,98453.34
2023-01-09T18:58:57.217Z,98461.53
2023-01-09T19:01:25.325Z,98455.69
2023-01-09T19:03:53.344Z,98448.53
2023-01-09T19:06:21.785Z,98434.69
2023-01-09T19:08:49.440Z,98441.50
2023-01-09T19:11:16.614Z,98435.63
2023-01-09T19:13:44.375Z,98432.00
2023-01-09T19:16:11.686Z,98430.16
2023-01-09T19:18:44.766Z,98434.63
2023-01-09T19:21:16.507Z,98414.47
2023-01-09T19:23:45.315Z,98410.88
2023-01-09T19:26:20.480Z,98413.56
2023-01-09T19:28:48.262Z,98412.94
2023-01-09T19:31:16.131Z,98406.66
2023-01-09T19:33:44.961Z,98393.41
2023-01-09T19:36:12.770Z,98390.03
2023-01-09T19:38:41.467Z,98382.78
2023-01-09T19:41:14.627Z,98376.66
2023-01-09T19:43:42.346Z,98372.47
2023-01-09T19:46:13.147Z,98372.53
2023-01-09T19:48:42.675Z,98369.09
2023-01-09T19:51:11.094Z,98375.00
2023-01-09T19:53:39.735Z,98378.13
2023-01-09T19:56:14.777Z,98379.19
2023-01-09T19:58:43.893Z,98375.41
2023-01-09T20:01:14.696Z,98366.50
2023-01-09T20:03:44.318Z,98353.91
2023-01-09T20:06:14.472Z,98365.56
2023-01-09T20:08:53.809Z,98344.19
2023-01-09T20:11:23.388Z,98334.34
2023-01-09T20:13:51.017Z,98340.25
2023-01-09T20:16:22.971Z,98345.28
2023-01-09T20:18:50.519Z,98319.94
2023-01-09T20:21:21.826Z,98312.09
2023-01-09T20:23:53.255Z,98335.94
2023-01-09T20:26:29.219Z,98321.13
2023-01-09T20:29:01.908Z,98322.19
2023-01-09T20:31:33.228Z,98313.75
2023-01-09T20:34:02.938Z,98304.47
2023-01-09T20:36:32.577Z,98286.00
2023-01-09T20:39:02.010Z,98287.88
2023-01-09T20:41:31.588Z,98289.53
2023-01-09T20:44:04.999Z,98297.97
2023-01-09T20:46:36.957Z,98309.47
2023-01-09T20:49:08.766Z,98296.72
2023-01-09T20:51:41.609Z,98303.81
2023-01-09T20:54:09.265Z,98296.78
2023-01-09T20:56:37.290Z,98292.06
2023-01-09T20:59:06.624Z,98298.25
2023-01-09T21:01:35.917Z,98286.56
2023-01-09T21:04:10.557Z,98280.66
2023-01-09T21:06:38.045Z,98280.28
2023-01-09T21:09:05.978Z,98266.13
2023-01-09T21:11:35.455Z,98274.81
2023-01-09T21:14:05.698Z,98274.84
2023-01-09T21:16:34.057Z,98259.38
2023-01-09T21:19:02.970Z,98258.97
2023-01-09T21:21:35.206Z,98260.03
2023-01-09T21:24:07.821Z,98251.38
2023-01-09T21:26:39.607Z,98262.31
2023-01-09T21:29:08.713Z,98261.28
2023-01-09T21:31:37.113Z,98261.50
2023-01-09T21:34:07.231Z,98247.69
2023-01-09T21:36:36.851Z,98250.59
2023-01-09T21:39:08.129Z,98279.19
2023-01-09T21:41:55.023Z,98249.34
2023-01-09T21:44:42.687Z,98247.06
2023-01-09T21:47:10.974Z,98253.25
2023-01-09T21:49:44.517Z,98249.72
2023-01-09T21:52:13.132Z,98239.03
2023-01-09T21:54:41.904Z,98241.91
2023-01-09T21:57:11.803Z,98238.63
2023-01-09T21:59:39.378Z,98246.66
2023-01-09T22:02:07.025Z,98257.38
2023-01-09T22:04:34.770Z,98232.84
2023-01-09T22:07:01.869Z,98245.00
2023-01-09T22:09:29.305Z,98246.84
2023-01-09T22:11:57.882Z,98252.63
2023-01-09T22:14:25.368Z,98251.59
2023-01-09T22:16:52.464Z,98238.00
2023-01-09T22:19:19.959Z,98232.66
2023-01-09T22:21:47.232Z,98233.06
2023-01-09T22:24:16.909Z,98245.44
2023-01-09T22:26:46.411Z,98228.94
2023-01-09T22:29:16.605Z,98235.97
2023-01-09T22:31:45.422Z,98240.25
2023-01-09T22:34:18.394Z,98245.00
2023-01-09T22:36:46.703Z,98225.63
2023-01-09T22:39:15.990Z,98231.63
2023-01-09T22:41:43.396Z,98236.13
2023-01-09T22:44:12.211Z,98229.16
2023-01-09T22:46:39.602Z,98161.97
2023-01-09T22:49:07.084Z,98203.19
2023-01-09T22:51:34.261Z,98206.88
2023-01-09T22:54:02.017Z,98209.34
2023-01-09T22:56:29.392Z,98225.03
2023-01-09T22:58:59.122Z,98212.03
2023-01-09T23:01:26.486Z,98218.22
2023-01-09T23:03:53.988Z,98207.72
2023-01-09T23:06:23.289Z,98198.03
2023-01-09T23:08:52.874Z,98197.22
2023-01-09T23:11:48.150Z,98188.13
2023-01-09T23:14:17.221Z,98202.16
2023-01-09T23:16:45.385Z,98198.03
2023-01-09T23:19:14.692Z,98199.47
2023-01-09T23:21:43.420Z,98189.78
2023-01-09T23:24:12.622Z,98196.78
2023-01-09T23:26:40.522Z,98188.34
2023-01-09T23:29:10.521Z,98180.94
2023-01-09T23:31:39.789Z,98142.59
2023-01-09T23:34:08.801Z,98165.03
2023-01-09T23:36:37.284Z,98174.94
2023-01-09T23:39:09.133Z,98173.91
2023-01-09T23:42:09.546Z,98168.78
2023-01-09T23:44:36.970Z,98144.84
2023-01-09T23:47:04.207Z,98174.13
2023-01-09T23:49:31.570Z,98167.50
2023-01-09T23:52:01.672Z,98154.91
2023-01-09T23:54:29.154Z,98174.50
2023-01-09T23:56:56.650Z,98169.34
2023-01-09T23:59:24.164Z,98176.59
